createdAt,value
2019-03-13T00:35:28.097Z,47.08
2019-03-13T00:37:59.788Z,47.98
2019-03-13T00:40:30.251Z,48.71
2019-03-13T00:43:01.039Z,48.17
2019-03-13T00:45:33.256Z,46.67
2019-03-13T00:48:04.914Z,47.36
2019-03-13T00:50:35.792Z,47.68
2019-03-13T00:53:06.575Z,47.43
2019-03-13T00:55:37.986Z,47.31
2019-03-13T00:58:11.507Z,47.47
2019-03-13T01:01:01.943Z,48.59
2019-03-13T01:03:54.261Z,48.40
2019-03-13T01:06:27.681Z,48.35
2019-03-13T01:08:58.199Z,47.46
2019-03-13T01:11:33.021Z,48.06
2019-03-13T01:14:03.987Z,47.86
2019-03-13T01:16:41.092Z,48.79
2019-03-13T01:19:15.874Z,47.80
2019-03-13T01:21:46.091Z,48.37
2019-03-13T01:24:17.163Z,48.33
2019-03-13T01:26:48.643Z,48.05
2019-03-13T01:29:19.380Z,49.93
2019-03-13T01:32:25.867Z,50.47
2019-03-13T01:35:18.502Z,49.74
2019-03-13T01:37:57.460Z,48.16
2019-03-13T01:40:31.264Z,49.34
2019-03-13T01:43:05.529Z,47.03
2019-03-13T01:45:35.721Z,46.86
2019-03-13T01:48:07.927Z,49.64
2019-03-13T01:50:38.523Z,47.70
2019-03-13T01:53:08.677Z,49.48
2019-03-13T01:55:38.929Z,49.93
2019-03-13T01:58:09.933Z,49.27
2019-03-13T02:00:40.194Z,50.24
2019-03-13T02:03:13.004Z,50.64
2019-03-13T02:05:43.171Z,49.42
2019-03-13T02:08:20.034Z,48.68
2019-03-13T02:10:50.643Z,50.34
2019-03-13T02:13:21.793Z,50.93
2019-03-13T02:15:54.383Z,51.56
2019-03-13T02:18:25.648Z,50.45
2019-03-13T02:20:56.917Z,50.57
2019-03-13T02:23:29.700Z,49.01
2019-03-13T02:26:00.714Z,48.57
2019-03-13T02:28:31.015Z,48.26
2019-03-13T02:31:01.516Z,48.67
2019-03-13T02:33:34.836Z,49.98
2019-03-13T02:36:05.164Z,52.49
2019-03-13T02:38:36.039Z,50.75
2019-03-13T02:41:07.953Z,49.57
2019-03-13T02:43:39.952Z,49.43
2019-03-13T02:46:14.976Z,50.97
2019-03-13T02:48:48.911Z,51.95
2019-03-13T02:51:21.390Z,50.93
2019-03-13T02:53:52.250Z,49.69
2019-03-13T02:56:24.771Z,49.45
2019-03-13T02:58:55.430Z,50.27
2019-03-13T03:01:53.917Z,49.81
2019-03-13T03:04:24.077Z,49.75
2019-03-13T03:06:54.198Z,50.47
2019-03-13T03:09:24.411Z,49.36
2019-03-13T03:11:55.516Z,47.80
2019-03-13T03:14:25.670Z,48.15
2019-03-13T03:16:58.121Z,49.01
2019-03-13T03:19:30.294Z,47.57
2019-03-13T03:22:00.712Z,49.32
2019-03-13T03:24:30.915Z,50.02
2019-03-13T03:27:01.505Z,47.86
2019-03-13T03:29:31.628Z,49.59
2019-03-13T03:32:03.929Z,48.07
2019-03-13T03:34:36.074Z,48.50
2019-03-13T03:37:06.219Z,48.25
2019-03-13T03:39:36.641Z,46.76
2019-03-13T03:42:09.428Z,51.00
2019-03-13T03:44:39.895Z,49.97
2019-03-13T03:47:11.289Z,49.33
2019-03-13T03:49:43.134Z,48.45
2019-03-13T03:52:13.288Z,49.13
2019-03-13T03:54:43.893Z,50.55
2019-03-13T03:57:32.167Z,51.63
2019-03-13T04:00:02.440Z,49.56
2019-03-13T04:02:32.870Z,50.09
2019-03-13T04:05:03.117Z,48.66
2019-03-13T04:07:33.841Z,50.23
2019-03-13T04:10:04.392Z,49.93
2019-03-13T04:12:34.541Z,49.08
2019-03-13T04:15:06.788Z,48.30
2019-03-13T04:17:38.226Z,48.59
2019-03-13T04:20:11.216Z,49.80
2019-03-13T04:22:41.810Z,48.37
2019-03-13T04:25:32.102Z,48.57
2019-03-13T04:28:04.161Z,48.95
2019-03-13T04:30:36.435Z,47.23
2019-03-13T04:33:06.978Z,48.69
2019-03-13T04:35:41.522Z,48.06
2019-03-13T04:38:12.461Z,48.75
2019-03-13T04:40:43.497Z,47.90
2019-03-13T04:43:16.973Z,47.74
2019-03-13T04:45:47.663Z,47.03
2019-03-13T04:48:18.693Z,49.05
2019-03-13T04:50:51.385Z,48.23
2019-03-13T04:53:21.988Z,48.43
2019-03-13T04:55:53.531Z,48.56
2019-03-13T04:58:24.046Z,47.11
2019-03-13T05:01:10.378Z,47.16
2019-03-13T05:03:43.029Z,45.82
2019-03-13T05:06:20.729Z,47.34
2019-03-13T05:08:56.319Z,47.17
2019-03-13T05:11:29.253Z,49.44
2019-03-13T05:14:06.786Z,47.59
2019-03-13T05:16:40.449Z,47.09
2019-03-13T05:19:13.122Z,46.64
2019-03-13T05:21:44.207Z,46.04
2019-03-13T05:24:14.695Z,47.64
2019-03-13T05:26:47.690Z,46.44
2019-03-13T05:29:20.600Z,45.62
2019-03-13T05:31:51.106Z,45.88
2019-03-13T05:34:21.265Z,45.91
2019-03-13T05:36:55.031Z,47.11
2019-03-13T05:39:25.184Z,44.94
2019-03-13T05:41:56.149Z,43.75
2019-03-13T05:44:26.544Z,45.70
2019-03-13T05:46:56.690Z,46.06
2019-03-13T05:49:27.603Z,47.90
2019-03-13T05:52:03.953Z,47.21
2019-03-13T05:54:38.000Z,48.71
2019-03-13T05:57:08.155Z,47.76
2019-03-13T05:59:38.883Z,47.83
2019-03-13T06:02:11.761Z,47.44
2019-03-13T06:04:44.061Z,47.66
2019-03-13T06:07:14.549Z,46.79
2019-03-13T06:09:49.584Z,46.54
2019-03-13T06:12:24.048Z,47.58
2019-03-13T06:14:55.869Z,47.86
2019-03-13T06:17:26.021Z,46.69
2019-03-13T06:19:56.211Z,45.52
2019-03-13T06:22:28.379Z,45.52
2019-03-13T06:25:00.458Z,46.45
2019-03-13T06:27:31.710Z,44.20
2019-03-13T06:30:01.978Z,44.63
2019-03-13T06:32:34.911Z,43.91
2019-03-13T06:35:06.266Z,44.91
2019-03-13T06:37:40.083Z,44.57
2019-03-13T06:40:13.169Z,47.70
2019-03-13T06:42:45.470Z,45.70
2019-03-13T06:45:15.785Z,44.68
2019-03-13T06:47:47.820Z,45.43
2019-03-13T06:50:18.726Z,45.71
2019-03-13T06:52:52.581Z,44.84
2019-03-13T06:55:24.004Z,46.74
2019-03-13T06:57:54.176Z,45.63
2019-03-13T07:00:42.217Z,46.85
2019-03-13T07:03:31.130Z,46.36
2019-03-13T07:06:20.103Z,45.86
2019-03-13T07:08:57.899Z,44.58
2019-03-13T07:11:47.092Z,44.99
2019-03-13T07:14:30.867Z,46.24
2019-03-13T07:17:10.080Z,48.27
2019-03-13T07:20:18.852Z,48.17
2019-03-13T07:22:57.820Z,48.48
2019-03-13T07:25:39.038Z,50.13
2019-03-13T07:28:20.974Z,47.68
2019-03-13T07:31:13.522Z,48.04
2019-03-13T07:34:03.017Z,47.75
2019-03-13T07:36:51.786Z,46.53
2019-03-13T07:39:38.449Z,45.07
2019-03-13T07:42:26.965Z,47.84
2019-03-13T07:45:11.453Z,46.55
2019-03-13T07:47:48.958Z,47.24
2019-03-13T07:50:39.593Z,48.93
2019-03-13T07:53:43.792Z,48.45
2019-03-13T07:56:32.149Z,49.73
2019-03-13T07:59:40.668Z,49.81
2019-03-13T08:02:20.082Z,49.08
2019-03-13T08:05:09.886Z,48.29
2019-03-13T08:07:52.521Z,46.46
2019-03-13T08:10:30.349Z,47.82
2019-03-13T08:13:18.963Z,46.96
2019-03-13T08:16:20.557Z,48.46
2019-03-13T08:19:29.144Z,50.55
2019-03-13T08:22:17.372Z,50.57
2019-03-13T08:25:07.869Z,50.95
2019-03-13T08:27:54.512Z,50.69
2019-03-13T08:30:51.511Z,50.30
2019-03-13T08:33:42.473Z,49.83
2019-03-13T08:36:31.114Z,51.64
2019-03-13T08:39:13.466Z,49.50
2019-03-13T08:42:10.256Z,49.91
2019-03-13T08:45:15.666Z,52.23
2019-03-13T08:48:06.044Z,52.21
2019-03-13T08:50:59.906Z,50.27
2019-03-13T08:53:48.288Z,51.59
2019-03-13T08:56:26.835Z,51.63
2019-03-13T08:59:34.489Z,51.42
2019-03-13T09:02:10.210Z,50.62
2019-03-13T09:04:52.138Z,51.91
2019-03-13T09:07:40.796Z,52.18
2019-03-13T09:10:32.590Z,52.31
2019-03-13T09:13:27.653Z,50.79
2019-03-13T09:16:06.548Z,51.97
2019-03-13T09:19:25.801Z,51.07
2019-03-13T09:22:06.268Z,51.06
2019-03-13T09:25:12.309Z,52.69
2019-03-13T09:28:14.352Z,51.47
2019-03-13T09:31:02.631Z,50.71
2019-03-13T09:34:04.447Z,51.54
2019-03-13T09:37:11.702Z,52.07
2019-03-13T09:40:10.805Z,50.54
2019-03-13T09:43:07.714Z,48.92
2019-03-13T09:46:18.837Z,48.04
2019-03-13T09:49:07.821Z,49.65
2019-03-13T09:52:02.702Z,51.24
2019-03-13T09:54:57.518Z,50.26
2019-03-13T09:57:52.202Z,51.70
2019-03-13T10:00:47.701Z,49.47
2019-03-13T10:03:27.994Z,48.78
2019-03-13T10:09:27.997Z,47.95
2019-03-13T10:12:23.160Z,47.01
2019-03-13T10:15:51.664Z,50.14
2019-03-13T10:18:40.665Z,49.30
2019-03-13T10:21:43.925Z,49.40
2019-03-13T10:24:29.337Z,49.97
2019-03-13T10:27:14.519Z,50.92
2019-03-13T10:29:52.275Z,50.11
2019-03-13T10:32:45.269Z,50.96
2019-03-13T10:35:32.359Z,51.65
2019-03-13T10:38:20.246Z,50.57
2019-03-13T10:41:02.578Z,52.08
2019-03-13T10:43:55.150Z,55.85
2019-03-13T10:46:43.792Z,55.34
2019-03-13T10:49:30.857Z,57.76
2019-03-13T10:52:32.934Z,58.96
2019-03-13T10:55:18.553Z,58.59
2019-03-13T10:58:07.169Z,58.57
2019-03-13T11:01:03.071Z,58.11
2019-03-13T11:03:58.771Z,58.07
2019-03-13T11:06:54.003Z,57.11
2019-03-13T11:09:34.219Z,58.00
2019-03-13T11:12:34.078Z,56.82
2019-03-13T11:15:22.799Z,56.90
2019-03-13T11:18:08.569Z,56.45
2019-03-13T11:20:50.892Z,58.25
2019-03-13T11:24:00.823Z,56.04
2019-03-13T11:26:44.410Z,55.68
2019-03-13T11:29:58.916Z,57.66
2019-03-13T11:33:04.777Z,55.80
2019-03-13T11:35:59.733Z,54.93
2019-03-13T11:38:49.353Z,53.79
2019-03-13T11:41:32.108Z,54.65
2019-03-13T11:44:25.284Z,55.99
2019-03-13T11:47:11.019Z,56.81
2019-03-13T11:50:06.313Z,54.42
2019-03-13T11:52:54.661Z,55.18
2019-03-13T11:55:50.553Z,57.35
2019-03-13T11:58:36.651Z,55.48
2019-03-13T12:01:17.648Z,54.32
2019-03-13T12:04:25.812Z,56.70
2019-03-13T12:07:21.582Z,55.63
2019-03-13T12:10:13.776Z,54.98
2019-03-13T12:13:15.760Z,56.51
2019-03-13T12:16:08.398Z,55.29
2019-03-13T12:19:00.749Z,57.12
2019-03-13T12:22:06.440Z,56.39
2019-03-13T12:25:05.186Z,54.07
2019-03-13T12:27:57.462Z,53.11
2019-03-13T12:30:48.464Z,52.43
2019-03-13T12:33:36.251Z,52.13
2019-03-13T12:36:24.356Z,54.05
2019-03-13T12:39:13.534Z,55.25
2019-03-13T12:42:18.438Z,54.96
2019-03-13T12:44:59.933Z,53.26
2019-03-13T12:47:49.735Z,55.35
2019-03-13T12:50:48.071Z,55.09
2019-03-13T12:53:34.319Z,53.17
2019-03-13T12:56:23.161Z,55.67
2019-03-13T12:59:09.739Z,52.31
2019-03-13T13:02:06.922Z,51.38
2019-03-13T13:05:05.128Z,54.41
2019-03-13T13:08:05.776Z,53.69
2019-03-13T13:10:56.643Z,54.57
2019-03-13T13:13:49.409Z,53.77
2019-03-13T13:16:38.247Z,55.82
2019-03-13T13:19:10.685Z,56.17
2019-03-13T13:21:42.286Z,55.19
2019-03-13T13:24:12.913Z,55.38
2019-03-13T13:26:44.613Z,55.41
2019-03-13T13:29:18.877Z,55.86
2019-03-13T13:31:55.176Z,58.06
2019-03-13T13:34:24.986Z,59.59
2019-03-13T13:36:55.130Z,56.88
2019-03-13T13:39:25.662Z,56.80
2019-03-13T13:41:58.521Z,58.77
2019-03-13T13:44:29.305Z,58.36
2019-03-13T13:47:02.115Z,57.47
2019-03-13T13:49:32.628Z,57.59
2019-03-13T13:52:03.531Z,59.76
2019-03-13T13:54:34.746Z,58.78
2019-03-13T13:57:07.694Z,57.97
2019-03-13T13:59:40.720Z,57.53
2019-03-13T14:02:11.597Z,57.93
2019-03-13T14:04:42.504Z,58.42
2019-03-13T14:07:13.919Z,57.99
2019-03-13T14:09:47.445Z,58.09
2019-03-13T14:12:23.589Z,54.14
2019-03-13T14:14:56.628Z,57.15
2019-03-13T14:17:28.737Z,58.39
2019-03-13T14:19:58.899Z,56.10
2019-03-13T14:22:29.072Z,56.07
2019-03-13T14:25:00.473Z,57.55
2019-03-13T14:27:32.641Z,57.27
2019-03-13T14:30:02.921Z,56.81
2019-03-13T14:32:33.228Z,56.26
2019-03-13T14:35:03.393Z,55.48
2019-03-13T14:37:35.112Z,55.23
2019-03-13T14:40:05.721Z,56.73
2019-03-13T14:42:35.966Z,55.90
2019-03-13T14:45:09.999Z,56.63
2019-03-13T14:47:41.123Z,55.04
2019-03-13T14:50:13.594Z,54.45
2019-03-13T14:52:46.868Z,53.68
2019-03-13T14:55:18.013Z,52.31
2019-03-13T14:57:50.154Z,52.55
2019-03-13T15:00:21.845Z,51.77
2019-03-13T15:02:52.627Z,51.90
2019-03-13T15:05:22.895Z,53.93
2019-03-13T15:07:55.069Z,53.22
2019-03-13T15:10:25.677Z,53.23
2019-03-13T15:12:56.266Z,53.60
2019-03-13T15:15:28.023Z,52.77
2019-03-13T15:17:58.497Z,51.57
2019-03-13T15:20:32.236Z,52.00
2019-03-13T15:23:07.264Z,53.57
2019-03-13T15:25:38.278Z,55.16
2019-03-13T15:28:08.534Z,54.56
2019-03-13T15:30:39.267Z,57.30
2019-03-13T15:33:09.777Z,56.66
2019-03-13T15:35:40.433Z,55.92
2019-03-13T15:38:10.588Z,55.84
2019-03-13T15:40:44.111Z,56.71
2019-03-13T15:43:14.692Z,54.00
2019-03-13T15:45:45.617Z,53.04
2019-03-13T15:48:17.702Z,52.62
2019-03-13T15:50:49.262Z,53.80
2019-03-13T15:53:19.986Z,52.77
2019-03-13T15:55:51.129Z,53.84
2019-03-13T15:58:21.283Z,54.81
2019-03-13T16:00:51.549Z,54.70
2019-03-13T16:03:22.115Z,55.07
2019-03-13T16:05:53.049Z,53.54
2019-03-13T16:08:23.550Z,54.30
2019-03-13T16:10:53.753Z,55.04
2019-03-13T16:14:10.690Z,55.83
2019-03-13T16:16:42.967Z,55.61
2019-03-13T16:19:14.466Z,54.51
2019-03-13T16:21:52.728Z,53.38
2019-03-13T16:24:24.918Z,54.38
2019-03-13T16:26:55.622Z,53.87
2019-03-13T16:29:26.194Z,57.62
2019-03-13T16:32:00.793Z,57.14
2019-03-13T16:34:31.341Z,57.51
2019-03-13T16:37:01.993Z,57.85
2019-03-13T16:39:32.974Z,58.39
2019-03-13T16:42:03.561Z,57.94
2019-03-13T16:44:36.032Z,56.32
2019-03-13T16:47:09.174Z,56.95
2019-03-13T16:49:40.260Z,57.37
2019-03-13T16:52:11.824Z,56.58
2019-03-13T16:54:41.989Z,55.58
2019-03-13T16:57:12.604Z,55.63
2019-03-13T17:00:12.517Z,54.95
2019-03-13T17:02:45.213Z,54.51
2019-03-13T17:05:15.941Z,53.79
2019-03-13T17:07:49.866Z,53.27
2019-03-13T17:10:27.114Z,53.63
2019-03-13T17:12:58.895Z,53.36
2019-03-13T17:15:30.154Z,52.92
2019-03-13T17:18:01.591Z,54.00
2019-03-13T17:20:33.243Z,54.72
2019-03-13T17:23:03.789Z,53.60
2019-03-13T17:25:34.112Z,54.09
2019-03-13T17:28:27.114Z,54.33
2019-03-13T17:30:57.727Z,56.68
2019-03-13T17:33:29.235Z,56.57
2019-03-13T17:36:04.860Z,55.78
2019-03-13T17:38:38.887Z,54.63
2019-03-13T17:41:09.095Z,53.96
2019-03-13T17:43:39.837Z,54.01
2019-03-13T17:46:10.069Z,56.38
2019-03-13T17:48:40.724Z,56.04
2019-03-13T17:51:13.091Z,54.83
2019-03-13T17:53:43.624Z,54.31
2019-03-13T17:56:13.877Z,53.24
2019-03-13T17:58:44.474Z,52.84
2019-03-13T18:01:17.052Z,53.57
2019-03-13T18:03:51.142Z,53.62
2019-03-13T18:06:24.385Z,54.33
2019-03-13T18:08:57.379Z,54.55
2019-03-13T18:11:28.998Z,53.93
2019-03-13T18:14:02.067Z,55.08
2019-03-13T18:16:43.255Z,55.76
2019-03-13T18:19:17.283Z,56.87
2019-03-13T18:21:48.042Z,56.38
2019-03-13T18:24:19.476Z,56.10
2019-03-13T18:27:09.839Z,57.42
2019-03-13T18:29:40.011Z,58.12
2019-03-13T18:32:11.733Z,59.53
2019-03-13T18:34:43.311Z,60.40
2019-03-13T18:37:13.451Z,58.06
2019-03-13T18:39:45.214Z,57.94
2019-03-13T18:42:15.935Z,57.01
2019-03-13T18:44:46.111Z,56.39
2019-03-13T18:47:16.587Z,57.24
2019-03-13T18:49:47.191Z,55.31
2019-03-13T18:52:18.664Z,55.24
2019-03-13T18:54:49.289Z,54.07
2019-03-13T18:57:19.489Z,54.22
2019-03-13T18:59:49.636Z,53.55
2019-03-13T19:02:19.814Z,53.38
2019-03-13T19:04:52.430Z,53.05
2019-03-13T19:07:27.708Z,52.64
2019-03-13T19:09:59.994Z,52.78
2019-03-13T19:12:31.693Z,52.82
2019-03-13T19:15:02.814Z,52.50
2019-03-13T19:17:34.120Z,51.10
2019-03-13T19:20:08.303Z,51.87
2019-03-13T19:22:40.103Z,51.29
2019-03-13T19:25:12.281Z,51.06
2019-03-13T19:27:45.982Z,50.51
2019-03-13T19:30:26.958Z,51.42
2019-03-13T19:32:57.357Z,51.86
2019-03-13T19:35:29.129Z,53.51
2019-03-13T19:38:01.432Z,53.34
2019-03-13T19:40:31.598Z,53.22
2019-03-13T19:43:04.108Z,53.25
2019-03-13T19:45:40.565Z,54.01
2019-03-13T19:48:14.957Z,53.21
2019-03-13T19:50:45.104Z,53.92
2019-03-13T19:53:26.999Z,53.20
2019-03-13T19:56:00.767Z,52.90
2019-03-13T19:58:32.300Z,52.44
2019-03-13T20:01:03.694Z,51.88
2019-03-13T20:03:34.216Z,51.46
2019-03-13T20:06:06.657Z,51.45
2019-03-13T20:08:40.185Z,51.56
2019-03-13T20:11:11.409Z,52.20
2019-03-13T20:13:42.469Z,52.22
2019-03-13T20:16:14.822Z,51.71
2019-03-13T20:18:45.754Z,51.73
2019-03-13T20:21:18.966Z,51.75
2019-03-13T20:23:49.140Z,51.83
2019-03-13T20:26:37.676Z,51.20
2019-03-13T20:29:21.434Z,52.99
2019-03-13T20:31:59.409Z,52.67
2019-03-13T20:34:36.206Z,53.12
2019-03-13T20:37:06.470Z,52.07
2019-03-13T20:39:37.975Z,51.90
2019-03-13T20:45:44.696Z,51.84
2019-03-13T20:48:15.516Z,52.57
2019-03-13T20:50:47.825Z,54.00
2019-03-13T20:53:21.992Z,54.63
2019-03-13T20:55:52.776Z,57.09
2019-03-13T20:58:25.756Z,55.34
2019-03-13T21:00:56.812Z,56.80
2019-03-13T21:03:30.194Z,56.32
2019-03-13T21:06:00.863Z,55.75
2019-03-13T21:08:35.839Z,53.92
2019-03-13T21:11:07.880Z,53.37
2019-03-13T21:13:40.331Z,53.33
2019-03-13T21:16:14.675Z,52.81
2019-03-13T21:19:32.667Z,51.32
2019-03-13T21:22:15.854Z,51.50
2019-03-13T21:24:49.697Z,51.39
2019-03-13T21:27:20.231Z,51.97
2019-03-13T21:29:53.483Z,50.58
2019-03-13T21:32:24.143Z,50.42
2019-03-13T21:34:56.127Z,50.12
2019-03-13T21:37:28.990Z,49.41
2019-03-13T21:40:00.065Z,48.82
2019-03-13T21:42:31.729Z,49.49
2019-03-13T21:45:05.719Z,51.77
2019-03-13T21:47:43.152Z,50.89
2019-03-13T21:50:15.518Z,50.96
2019-03-13T21:52:46.502Z,51.08
2019-03-13T21:55:20.478Z,50.90
2019-03-13T22:00:53.227Z,52.76
2019-03-13T22:03:29.858Z,53.10
2019-03-13T22:05:58.987Z,52.43
2019-03-13T22:08:29.991Z,52.06
2019-03-13T22:11:00.255Z,51.26
2019-03-13T22:13:31.767Z,51.36
2019-03-13T22:16:23.127Z,53.08
2019-03-13T22:18:53.821Z,51.87
2019-03-13T22:21:25.146Z,51.01
2019-03-13T22:23:55.301Z,51.79
2019-03-13T22:26:27.025Z,51.55
2019-03-13T22:28:57.609Z,50.95
2019-03-13T22:31:27.822Z,51.31
2019-03-13T22:34:00.356Z,52.26
2019-03-13T22:36:32.714Z,51.93
2019-03-13T22:39:26.751Z,51.46
2019-03-13T22:43:19.356Z,50.76
2019-03-13T22:46:25.738Z,51.37
2019-03-13T22:49:51.092Z,50.58
2019-03-13T22:52:27.547Z,49.86
2019-03-13T22:58:10.966Z,50.81
2019-03-13T23:08:53.702Z,50.38
2019-03-13T23:19:32.326Z,51.10
2019-03-13T23:22:23.979Z,50.90
2019-03-13T23:25:46.338Z,51.50
2019-03-13T23:28:41.723Z,51.41
2019-03-13T23:31:14.405Z,50.30
2019-03-13T23:34:25.388Z,50.74
2019-03-13T23:36:57.471Z,50.41
2019-03-13T23:39:59.658Z,50.70
2019-03-13T23:43:22.358Z,50.88
2019-03-13T23:46:02.911Z,51.90
2019-03-13T23:52:04.692Z,53.99
2019-03-13T23:55:06.562Z,57.36
2019-03-13T23:57:40.823Z,57.29
